createdAt,value
2023-05-22T00:01:15.396Z,0
2023-05-22T00:03:11.154Z,0
2023-05-22T00:05:11.476Z,0
2023-05-22T00:07:10.938Z,0
2023-05-22T00:09:11.263Z,0
2023-05-22T00:11:11.524Z,0
2023-05-22T00:13:11.182Z,0
2023-05-22T00:15:10.814Z,0
2023-05-22T00:17:11.897Z,0
2023-05-22T00:19:11.191Z,0
2023-05-22T00:21:10.728Z,0.19
2023-05-22T00:23:12.623Z,0.19
2023-05-22T00:25:10.804Z,0.19
2023-05-22T00:27:11.198Z,0
2023-05-22T00:29:11.044Z,0
2023-05-22T00:31:11.253Z,0
2023-05-22T00:33:11.774Z,0
2023-05-22T00:35:11.495Z,0
2023-05-22T00:37:10.719Z,0
2023-05-22T00:39:11.200Z,0.2
2023-05-22T00:41:11.439Z,0.2
2023-05-22T00:43:10.531Z,0.2
2023-05-22T00:45:11.179Z,0
2023-05-22T00:47:11.169Z,0
2023-05-22T00:49:11.285Z,0
2023-05-22T00:51:11.382Z,0
2023-05-22T00:53:10.657Z,0
2023-05-22T00:55:11.173Z,0
2023-05-22T00:57:10.613Z,0.2
2023-05-22T00:59:10.300Z,0.2
2023-05-22T01:01:14.839Z,0
2023-05-22T01:03:11.168Z,0.2
2023-05-22T01:05:11.536Z,0.2
2023-05-22T01:07:10.919Z,0.2
2023-05-22T01:09:11.368Z,0.21
2023-05-22T01:11:11.390Z,0.21
2023-05-22T01:13:10.594Z,0.21
2023-05-22T01:15:11.058Z,0
2023-05-22T01:17:11.267Z,0
2023-05-22T01:19:11.284Z,0
2023-05-22T01:21:11.982Z,0.22
2023-05-22T01:23:11.288Z,0.22
2023-05-22T01:25:10.771Z,0.22
2023-05-22T01:27:10.351Z,0.22
2023-05-22T01:29:11.179Z,0.22
2023-05-22T01:31:10.831Z,0.22
2023-05-22T01:33:11.866Z,0.22
2023-05-22T01:35:10.901Z,0.22
2023-05-22T01:37:11.011Z,0.22
2023-05-22T01:39:10.715Z,0.22
2023-05-22T01:41:11.672Z,0.22
2023-05-22T01:43:10.813Z,0.22
2023-05-22T01:45:10.446Z,0.22
2023-05-22T01:47:11.248Z,0.22
2023-05-22T01:49:10.642Z,0.22
2023-05-22T01:51:11.267Z,0.22
2023-05-22T01:53:10.746Z,0
2023-05-22T01:55:11.140Z,0
2023-05-22T01:57:10.695Z,0
2023-05-22T01:59:10.394Z,0
2023-05-22T02:01:15.521Z,0
2023-05-22T02:03:11.497Z,0
2023-05-22T02:05:11.064Z,0
2023-05-22T02:07:12.132Z,0
2023-05-22T02:09:11.233Z,0
2023-05-22T02:11:11.134Z,0
2023-05-22T02:13:10.322Z,0
2023-05-22T02:15:10.962Z,0
2023-05-22T02:17:10.653Z,0
2023-05-22T02:19:11.296Z,0
2023-05-22T02:21:10.771Z,0
2023-05-22T02:23:11.305Z,0
2023-05-22T02:25:10.494Z,0
2023-05-22T02:27:11.259Z,0
2023-05-22T02:29:11.095Z,0
2023-05-22T02:31:10.943Z,0
2023-05-22T02:33:11.662Z,0.22
2023-05-22T02:35:10.740Z,0.22
2023-05-22T02:37:11.313Z,0.22
2023-05-22T02:39:11.127Z,0.19
2023-05-22T02:41:10.682Z,0.19
2023-05-22T02:43:11.111Z,0.19
2023-05-22T02:45:10.946Z,0.19
2023-05-22T02:47:10.988Z,0.19
2023-05-22T02:49:11.183Z,0.19
2023-05-22T02:51:10.585Z,0.18
2023-05-22T02:53:10.966Z,0.18
2023-05-22T02:55:10.736Z,0.18
2023-05-22T02:57:10.664Z,0
2023-05-22T02:59:10.937Z,0
2023-05-22T03:01:15.811Z,0
2023-05-22T03:03:11.888Z,0
2023-05-22T03:05:11.011Z,0
2023-05-22T03:07:11.161Z,0
2023-05-22T03:09:10.784Z,0
2023-05-22T03:11:10.485Z,0
2023-05-22T03:13:10.669Z,0
2023-05-22T03:15:10.766Z,0
2023-05-22T03:17:11.628Z,0
2023-05-22T03:19:13.567Z,0
2023-05-22T03:21:10.612Z,0
2023-05-22T03:23:11.128Z,0
2023-05-22T03:25:10.565Z,0
2023-05-22T03:27:11.274Z,0
2023-05-22T03:29:10.966Z,0
2023-05-22T03:31:10.485Z,0
2023-05-22T03:33:11.304Z,0
2023-05-22T03:35:10.812Z,0
2023-05-22T03:37:11.278Z,0
2023-05-22T03:39:11.122Z,0
2023-05-22T03:41:11.217Z,0
2023-05-22T03:43:10.641Z,0
2023-05-22T03:45:11.187Z,0.19
2023-05-22T03:47:10.886Z,0.19
2023-05-22T03:49:11.371Z,0.19
2023-05-22T03:51:11.376Z,0
2023-05-22T03:53:10.619Z,0
2023-05-22T03:55:11.139Z,0
2023-05-22T03:57:10.869Z,0
2023-05-22T03:59:11.177Z,0
2023-05-22T04:01:15.020Z,0
2023-05-22T04:03:11.480Z,0.22
2023-05-22T04:05:11.500Z,0.22
2023-05-22T04:07:10.863Z,0.22
2023-05-22T04:09:11.235Z,0
2023-05-22T04:11:11.467Z,0
2023-05-22T04:13:10.743Z,0
2023-05-22T04:15:11.234Z,0.24
2023-05-22T04:17:13.529Z,0.24
2023-05-22T04:19:11.381Z,0.24
2023-05-22T04:21:11.411Z,0
2023-05-22T04:23:10.582Z,0
2023-05-22T04:25:11.110Z,0
2023-05-22T04:27:10.809Z,0
2023-05-22T04:29:11.291Z,0
2023-05-22T04:31:11.413Z,0
2023-05-22T04:33:10.910Z,0.22
2023-05-22T04:35:11.050Z,0.22
2023-05-22T04:37:10.544Z,0.22
2023-05-22T04:39:10.538Z,0
2023-05-22T04:41:11.634Z,0
2023-05-22T04:43:10.570Z,0
2023-05-22T04:45:11.136Z,0
2023-05-22T04:47:11.423Z,0
2023-05-22T04:49:10.620Z,0
2023-05-22T04:51:11.620Z,0
2023-05-22T04:53:10.694Z,0
2023-05-22T04:55:13.381Z,0
2023-05-22T04:57:23.557Z,0
2023-05-22T04:59:11.213Z,0
2023-05-22T05:01:15.374Z,0
2023-05-22T05:03:11.705Z,0.26
2023-05-22T05:05:11.328Z,0.26
2023-05-22T05:07:10.704Z,0.26
2023-05-22T05:09:10.559Z,0.26
2023-05-22T05:11:11.261Z,0.26
2023-05-22T05:13:11.037Z,0.26
2023-05-22T05:15:11.406Z,0
2023-05-22T05:17:11.862Z,0
2023-05-22T05:19:11.074Z,0
2023-05-22T05:21:11.960Z,0.24
2023-05-22T05:23:11.435Z,0.24
2023-05-22T05:25:11.806Z,0.24
2023-05-22T05:27:11.837Z,0.25
2023-05-22T05:29:10.900Z,0.25
2023-05-22T05:31:10.679Z,0.25
2023-05-22T05:33:11.934Z,0.26
2023-05-22T05:35:10.702Z,0.26
2023-05-22T05:37:11.093Z,0.26
2023-05-22T05:39:10.908Z,0.27
2023-05-22T05:41:11.649Z,0.27
2023-05-22T05:43:10.891Z,0.27
2023-05-22T05:45:10.723Z,0
2023-05-22T05:48:16.286Z,0
2023-05-22T05:49:17.907Z,0
2023-05-22T05:51:11.473Z,0
2023-05-22T05:53:10.600Z,0
2023-05-22T05:55:11.280Z,0
2023-05-22T05:57:10.834Z,0
2023-05-22T05:59:11.246Z,0
2023-05-22T06:01:14.467Z,0
2023-05-22T06:03:13.965Z,0
2023-05-22T06:05:10.844Z,0
2023-05-22T06:07:11.049Z,0
2023-05-22T06:09:10.975Z,0
2023-05-22T06:11:10.856Z,0
2023-05-22T06:13:10.641Z,0
2023-05-22T06:15:11.018Z,0
2023-05-22T06:17:15.688Z,0
2023-05-22T06:19:11.040Z,0
2023-05-22T06:21:11.038Z,0.23
2023-05-22T06:23:11.314Z,0.23
2023-05-22T06:25:11.181Z,0.23
2023-05-22T06:27:10.656Z,0.24
2023-05-22T06:29:11.218Z,0.24
2023-05-22T06:31:29.345Z,0.24
2023-05-22T06:33:12.577Z,0
2023-05-22T06:35:10.967Z,0
2023-05-22T06:37:11.121Z,0
2023-05-22T06:39:10.864Z,0
2023-05-22T06:41:12.012Z,0
2023-05-22T06:43:10.870Z,0
2023-05-22T06:45:11.348Z,0
2023-05-22T06:47:12.356Z,0
2023-05-22T06:49:10.736Z,0
2023-05-22T06:51:11.759Z,0
2023-05-22T06:53:14.005Z,0
2023-05-22T06:55:11.104Z,0
2023-05-22T06:57:11.233Z,0.17
2023-05-22T06:59:10.436Z,0.17
2023-05-22T07:01:19.503Z,0.17
2023-05-22T07:03:11.005Z,0
2023-05-22T07:05:11.136Z,0
2023-05-22T07:07:10.632Z,0
2023-05-22T07:09:11.166Z,0.21
2023-05-22T07:11:10.733Z,0.21
2023-05-22T07:13:11.020Z,0.21
2023-05-22T07:15:10.864Z,0
2023-05-22T07:17:11.912Z,0.19
2023-05-22T07:19:11.412Z,0.19
2023-05-22T07:21:10.820Z,0.17
2023-05-22T07:23:11.278Z,0
2023-05-22T07:25:10.570Z,0
2023-05-22T07:27:11.274Z,0
2023-05-22T07:29:10.881Z,0
2023-05-22T07:31:11.664Z,0
2023-05-22T07:33:11.400Z,0.17
2023-05-22T07:35:10.577Z,0
2023-05-22T07:37:11.090Z,0
2023-05-22T07:39:10.531Z,0
2023-05-22T07:41:13.304Z,0
2023-05-22T07:43:11.092Z,0
2023-05-22T07:45:11.298Z,0
2023-05-22T07:47:11.166Z,0.15
2023-05-22T07:49:11.568Z,0.15
2023-05-22T07:51:11.405Z,0
2023-05-22T07:53:10.727Z,0.15
2023-05-22T07:55:11.311Z,0.15
2023-05-22T07:57:10.908Z,0.14
2023-05-22T07:59:10.511Z,0
2023-05-22T08:01:13.882Z,0
2023-05-22T08:03:11.778Z,0
2023-05-22T08:05:11.795Z,0
2023-05-22T08:07:11.382Z,0
2023-05-22T08:09:11.153Z,0.17
2023-05-22T08:11:38.462Z,0
2023-05-22T08:13:10.296Z,0
2023-05-22T08:15:11.191Z,0
2023-05-22T08:17:11.720Z,0.19
2023-05-22T08:19:11.631Z,0.19
2023-05-22T08:21:12.074Z,0.2
2023-05-22T08:23:11.321Z,0.2
2023-05-22T08:25:11.106Z,0.2
2023-05-22T08:27:10.770Z,0
2023-05-22T08:29:11.307Z,0
2023-05-22T08:31:11.176Z,0
2023-05-22T08:33:11.194Z,0
2023-05-22T08:35:11.089Z,0
2023-05-22T08:37:10.564Z,0
2023-05-22T08:39:11.190Z,0
2023-05-22T08:41:11.157Z,0
2023-05-22T08:43:11.764Z,0
2023-05-22T08:45:10.955Z,0
2023-05-22T08:47:11.734Z,0
2023-05-22T08:49:11.158Z,0
2023-05-22T08:51:10.816Z,0
2023-05-22T08:53:11.184Z,0
2023-05-22T08:55:11.127Z,0
2023-05-22T08:57:30.389Z,0
2023-05-22T08:59:10.881Z,0
2023-05-22T09:01:15.377Z,0
2023-05-22T09:03:11.778Z,0
2023-05-22T09:05:11.124Z,0
2023-05-22T09:07:10.573Z,0
2023-05-22T09:09:29.136Z,0
2023-05-22T09:11:10.796Z,0
2023-05-22T09:13:11.213Z,0
2023-05-22T09:15:10.856Z,0
2023-05-22T09:17:10.926Z,0
2023-05-22T09:19:11.229Z,0
2023-05-22T09:21:25.937Z,0
2023-05-22T09:23:10.482Z,0
2023-05-22T09:25:11.150Z,0.22
2023-05-22T09:27:10.444Z,0.22
2023-05-22T09:29:11.123Z,0.22
2023-05-22T09:31:14.802Z,0.21
2023-05-22T09:33:11.496Z,0.21
2023-05-22T09:35:10.833Z,0.21
2023-05-22T09:37:10.496Z,0.21
2023-05-22T09:39:11.126Z,0.21
2023-05-22T09:41:10.716Z,0.21
2023-05-22T09:43:11.058Z,0
2023-05-22T09:45:11.620Z,0
2023-05-22T09:47:11.884Z,0
2023-05-22T09:49:12.665Z,0
2023-05-22T09:51:11.718Z,0
2023-05-22T09:53:10.923Z,0
2023-05-22T09:55:11.253Z,0
2023-05-22T09:57:25.223Z,0
2023-05-22T09:59:11.432Z,0
2023-05-22T10:01:14.252Z,0.18
2023-05-22T10:03:10.944Z,0.18
2023-05-22T10:05:12.016Z,0.18
2023-05-22T10:07:10.849Z,0
2023-05-22T10:09:11.388Z,0
2023-05-22T10:11:11.133Z,0
2023-05-22T10:13:10.571Z,0
2023-05-22T10:15:11.033Z,0
2023-05-22T10:17:12.258Z,0
2023-05-22T10:19:11.300Z,0
2023-05-22T10:21:10.676Z,0
2023-05-22T10:23:10.915Z,0
2023-05-22T10:25:11.098Z,0
2023-05-22T10:27:11.493Z,0
2023-05-22T10:29:10.971Z,0
2023-05-22T10:31:10.829Z,0
2023-05-22T10:33:11.906Z,0
2023-05-22T10:35:11.136Z,0
2023-05-22T10:37:28.285Z,0.15
2023-05-22T10:39:10.776Z,0.15
2023-05-22T10:41:11.666Z,0.15
2023-05-22T10:43:11.085Z,0.16
2023-05-22T10:45:10.563Z,0.16
2023-05-22T10:47:11.665Z,0.16
2023-05-22T10:49:11.306Z,0
2023-05-22T10:51:11.605Z,0
2023-05-22T10:53:11.155Z,0
2023-05-22T10:55:10.613Z,0.17
2023-05-22T10:57:12.060Z,0.17
2023-05-22T10:59:14.252Z,0.17
2023-05-22T11:01:15.225Z,0
2023-05-22T11:03:29.195Z,0
2023-05-22T11:05:11.715Z,0
2023-05-22T11:07:10.818Z,0.17
2023-05-22T11:09:11.344Z,0.17
2023-05-22T11:11:11.242Z,0.17
2023-05-22T11:13:10.884Z,0
2023-05-22T11:15:11.239Z,0
2023-05-22T11:17:11.321Z,0
2023-05-22T11:19:26.221Z,0
2023-05-22T11:21:11.202Z,0
2023-05-22T11:23:11.325Z,0
2023-05-22T11:25:11.090Z,0.17
2023-05-22T11:27:13.798Z,0.17
2023-05-22T11:29:11.037Z,0.17
2023-05-22T11:31:10.836Z,0
2023-05-22T11:33:11.683Z,0
2023-05-22T11:35:10.918Z,0
2023-05-22T11:37:11.118Z,0
2023-05-22T11:39:10.932Z,0
2023-05-22T11:41:10.789Z,0
2023-05-22T11:43:11.061Z,0
2023-05-22T11:45:10.907Z,0
2023-05-22T11:47:11.249Z,0
2023-05-22T11:49:13.310Z,0.35
2023-05-22T11:51:29.902Z,0.35
2023-05-22T11:53:10.884Z,0.35
2023-05-22T11:55:13.508Z,0
2023-05-22T11:57:10.639Z,0
2023-05-22T11:59:11.253Z,0
2023-05-22T12:01:17.303Z,0
2023-05-22T12:03:12.037Z,0
2023-05-22T12:05:11.153Z,0
2023-05-22T12:07:14.830Z,0
2023-05-22T12:09:11.068Z,0
2023-05-22T12:11:11.363Z,0
2023-05-22T12:13:10.582Z,0.28
2023-05-22T12:15:11.618Z,0.28
2023-05-22T12:17:10.899Z,0.28
2023-05-22T12:19:11.643Z,0
2023-05-22T12:21:10.818Z,0
2023-05-22T12:23:11.134Z,0
2023-05-22T12:25:10.297Z,0
2023-05-22T12:27:11.188Z,0
2023-05-22T12:29:10.669Z,0
2023-05-22T12:31:12.117Z,0.19
2023-05-22T12:33:11.829Z,0.19
2023-05-22T12:35:10.678Z,0.19
2023-05-22T12:37:11.229Z,0.14
2023-05-22T12:39:10.534Z,0.14
2023-05-22T12:41:11.651Z,0.14
2023-05-22T12:43:10.592Z,0.14
2023-05-22T12:45:11.309Z,0.14
2023-05-22T12:47:12.291Z,0.14
2023-05-22T12:49:11.622Z,0
2023-05-22T12:51:11.416Z,0
2023-05-22T12:53:10.877Z,0
2023-05-22T12:55:10.537Z,0.14
2023-05-22T12:57:11.018Z,0.14
2023-05-22T12:59:10.848Z,0.14
2023-05-22T13:01:15.332Z,0.15
2023-05-22T13:03:11.303Z,0.15
2023-05-22T13:05:10.965Z,0.15
2023-05-22T13:07:11.241Z,0
2023-05-22T13:09:10.750Z,0
2023-05-22T13:11:11.222Z,0
2023-05-22T13:13:11.006Z,0
2023-05-22T13:15:11.278Z,0
2023-05-22T13:17:11.253Z,0
2023-05-22T13:19:10.617Z,0.14
2023-05-22T13:21:11.157Z,0.14
2023-05-22T13:23:10.256Z,0.14
2023-05-22T13:25:11.132Z,0.14
2023-05-22T13:27:10.718Z,0.14
2023-05-22T13:29:10.946Z,0.14
2023-05-22T13:31:10.790Z,0
2023-05-22T13:33:11.482Z,0
2023-05-22T13:35:13.351Z,0
2023-05-22T13:37:10.362Z,0.15
2023-05-22T13:39:10.958Z,0.15
2023-05-22T13:41:11.841Z,0.15
2023-05-22T13:43:11.259Z,0
2023-05-22T13:45:10.743Z,0
2023-05-22T13:47:15.610Z,0
2023-05-22T13:49:11.125Z,0.17
2023-05-22T13:51:10.746Z,0.17
2023-05-22T13:53:11.187Z,0.17
2023-05-22T13:55:10.405Z,0.17
2023-05-22T13:57:10.788Z,0.17
2023-05-22T13:59:10.478Z,0.17
2023-05-22T14:01:14.865Z,0.17
2023-05-22T14:03:12.376Z,0.17
2023-05-22T14:05:11.799Z,0.17
2023-05-22T14:07:10.452Z,0
2023-05-22T14:09:11.210Z,0
2023-05-22T14:11:10.816Z,0
2023-05-22T14:13:10.881Z,0.17
2023-05-22T14:15:10.393Z,0.17
2023-05-22T14:17:11.719Z,0.17
2023-05-22T14:19:10.859Z,0
2023-05-22T14:21:11.151Z,0
2023-05-22T14:23:31.447Z,0
2023-05-22T14:25:11.137Z,0
2023-05-22T14:27:12.733Z,0
2023-05-22T14:29:11.169Z,0
2023-05-22T14:31:11.077Z,0.14
2023-05-22T14:33:11.826Z,0.14
2023-05-22T14:35:10.622Z,0.14
2023-05-22T14:37:11.395Z,0.13
2023-05-22T14:39:10.836Z,0.13
2023-05-22T14:41:11.528Z,0.13
2023-05-22T14:43:11.014Z,0
2023-05-22T14:45:10.582Z,0
2023-05-22T14:47:11.376Z,0
2023-05-22T14:49:10.997Z,0.14
2023-05-22T14:51:28.450Z,0.14
2023-05-22T14:53:10.612Z,0.14
2023-05-22T14:55:13.189Z,0.14
2023-05-22T14:57:10.541Z,0.14
2023-05-22T14:59:11.130Z,0.14
2023-05-22T15:01:14.118Z,0
2023-05-22T15:03:11.314Z,0
2023-05-22T15:05:11.411Z,0
2023-05-22T15:07:10.728Z,0
2023-05-22T15:09:11.126Z,0
2023-05-22T15:11:10.879Z,0
2023-05-22T15:13:11.127Z,0
2023-05-22T15:15:10.740Z,0
2023-05-22T15:17:11.412Z,0
2023-05-22T15:19:11.796Z,0
2023-05-22T15:21:11.120Z,0
2023-05-22T15:23:27.888Z,0
2023-05-22T15:25:11.687Z,0
2023-05-22T15:27:10.689Z,0
2023-05-22T15:29:11.325Z,0
2023-05-22T15:31:10.772Z,0
2023-05-22T15:33:11.414Z,0
2023-05-22T15:35:10.814Z,0
2023-05-22T15:37:11.353Z,0
2023-05-22T15:39:10.773Z,0
2023-05-22T15:41:11.273Z,0
2023-05-22T15:43:15.865Z,0.14
2023-05-22T15:45:11.008Z,0.14
2023-05-22T15:47:11.262Z,0.14
2023-05-22T15:49:11.428Z,0
2023-05-22T15:51:11.189Z,0
2023-05-22T15:53:10.857Z,0
2023-05-22T15:55:11.130Z,0
2023-05-22T15:57:10.523Z,0
2023-05-22T15:59:10.889Z,0
2023-05-22T16:01:16.185Z,0
2023-05-22T16:03:12.030Z,0
2023-05-22T16:05:10.751Z,0
2023-05-22T16:07:10.514Z,0
2023-05-22T16:09:10.929Z,0
2023-05-22T16:11:11.017Z,0
2023-05-22T16:13:11.076Z,0
2023-05-22T16:15:12.954Z,0
2023-05-22T16:17:11.516Z,0
2023-05-22T16:19:10.790Z,0
2023-05-22T16:21:11.353Z,0
2023-05-22T16:23:23.672Z,0
2023-05-22T16:25:11.449Z,0
2023-05-22T16:27:10.762Z,0
2023-05-22T16:29:11.127Z,0
2023-05-22T16:31:11.336Z,0
2023-05-22T16:33:10.982Z,0
2023-05-22T16:35:11.167Z,0
2023-05-22T16:37:13.249Z,0
2023-05-22T16:39:11.173Z,0
2023-05-22T16:41:11.170Z,0
2023-05-22T16:43:11.407Z,0
2023-05-22T16:45:10.756Z,0
2023-05-22T16:47:10.863Z,0
2023-05-22T16:49:11.308Z,0
2023-05-22T16:51:11.906Z,0
2023-05-22T16:53:11.378Z,0
2023-05-22T16:55:10.551Z,0.16
2023-05-22T16:57:11.129Z,0.16
2023-05-22T16:59:11.744Z,0.16
2023-05-22T17:01:15.134Z,0
2023-05-22T17:03:11.956Z,0
2023-05-22T17:05:11.280Z,0
2023-05-22T17:07:10.977Z,0
2023-05-22T17:09:11.453Z,0
2023-05-22T17:11:11.207Z,0
2023-05-22T17:13:11.341Z,0.15
2023-05-22T17:15:10.784Z,0.15
2023-05-22T17:17:11.472Z,0.15
2023-05-22T17:19:11.068Z,0
2023-05-22T17:21:10.767Z,0
2023-05-22T17:23:11.039Z,0
2023-05-22T17:25:12.450Z,0.15
2023-05-22T17:27:11.336Z,0.15
2023-05-22T17:29:10.737Z,0.15
2023-05-22T17:31:11.388Z,0
2023-05-22T17:33:10.946Z,0
2023-05-22T17:35:11.010Z,0
2023-05-22T17:37:10.843Z,0
2023-05-22T17:39:11.271Z,0
2023-05-22T17:41:29.469Z,0
2023-05-22T17:43:10.491Z,0.14
2023-05-22T17:45:10.854Z,0.14
2023-05-22T17:47:10.989Z,0.14
2023-05-22T17:49:12.466Z,0
2023-05-22T17:51:11.104Z,0
2023-05-22T17:53:10.256Z,0
2023-05-22T17:55:11.150Z,0
2023-05-22T17:57:10.598Z,0
2023-05-22T17:59:11.135Z,0
2023-05-22T18:01:15.466Z,0
2023-05-22T18:03:11.936Z,0
2023-05-22T18:05:10.863Z,0
2023-05-22T18:07:10.682Z,0.15
2023-05-22T18:09:11.186Z,0.15
2023-05-22T18:11:10.910Z,0.15
2023-05-22T18:13:28.832Z,0.16
2023-05-22T18:15:10.966Z,0.16
2023-05-22T18:17:10.912Z,0.16
2023-05-22T18:19:11.084Z,0
2023-05-22T18:21:10.459Z,0
2023-05-22T18:23:11.002Z,0
2023-05-22T18:25:11.465Z,0
2023-05-22T18:27:10.974Z,0
2023-05-22T18:29:10.430Z,0
2023-05-22T18:31:12.065Z,0
2023-05-22T18:33:11.026Z,0
2023-05-22T18:35:11.889Z,0
2023-05-22T18:37:11.177Z,0
2023-05-22T18:39:10.640Z,0
2023-05-22T18:41:11.425Z,0
2023-05-22T18:43:10.754Z,0
2023-05-22T18:45:12.399Z,0
2023-05-22T18:47:11.441Z,0
2023-05-22T18:49:10.988Z,0
2023-05-22T18:51:11.249Z,0
2023-05-22T18:53:10.924Z,0
2023-05-22T18:55:10.456Z,0
2023-05-22T18:57:10.940Z,0
2023-05-22T18:59:10.487Z,0
2023-05-22T19:01:15.247Z,0
2023-05-22T19:03:11.154Z,0
2023-05-22T19:05:11.729Z,0
2023-05-22T19:07:10.947Z,0
2023-05-22T19:09:10.303Z,0
2023-05-22T19:11:11.356Z,0
2023-05-22T19:13:10.770Z,0.31
2023-05-22T19:15:11.258Z,0.31
2023-05-22T19:17:11.127Z,0.31
2023-05-22T19:19:11.604Z,0
2023-05-22T19:21:11.323Z,0
2023-05-22T19:23:12.315Z,0
2023-05-22T19:25:11.324Z,0
2023-05-22T19:27:10.788Z,0
2023-05-22T19:29:11.108Z,0
2023-05-22T19:31:11.314Z,0
2023-05-22T19:33:11.024Z,0
2023-05-22T19:35:11.114Z,0
2023-05-22T19:37:10.714Z,0
2023-05-22T19:39:11.226Z,0
2023-05-22T19:41:11.404Z,0
2023-05-22T19:43:11.062Z,0
2023-05-22T19:45:10.765Z,0
2023-05-22T19:47:11.503Z,0
2023-05-22T19:49:10.916Z,0
2023-05-22T19:51:10.682Z,0
2023-05-22T19:53:11.055Z,0
2023-05-22T19:55:10.701Z,0
2023-05-22T19:57:10.999Z,0
2023-05-22T19:59:10.785Z,0
2023-05-22T20:01:15.789Z,0
2023-05-22T20:03:11.075Z,0
2023-05-22T20:05:11.144Z,0
2023-05-22T20:07:10.822Z,0
2023-05-22T20:09:11.873Z,0
2023-05-22T20:11:11.091Z,0
2023-05-22T20:13:10.538Z,0.29
2023-05-22T20:15:11.199Z,0.29
2023-05-22T20:17:15.426Z,0.29
2023-05-22T20:19:12.373Z,0
2023-05-22T20:21:11.993Z,0
2023-05-22T20:23:10.849Z,0
2023-05-22T20:25:11.477Z,0.27
2023-05-22T20:27:10.675Z,0.27
2023-05-22T20:29:11.168Z,0.27
2023-05-22T20:31:10.849Z,0
2023-05-22T20:33:11.853Z,0
2023-05-22T20:35:11.307Z,0
2023-05-22T20:37:11.721Z,0
2023-05-22T20:39:11.160Z,0
2023-05-22T20:41:10.752Z,0
2023-05-22T20:43:11.264Z,0
2023-05-22T20:45:13.564Z,0
2023-05-22T20:47:11.528Z,0
2023-05-22T20:49:10.932Z,0
2023-05-22T20:51:14.421Z,0
2023-05-22T20:53:10.773Z,0
2023-05-22T20:55:10.596Z,0
2023-05-22T20:57:11.197Z,0
2023-05-22T20:59:13.575Z,0
2023-05-22T21:01:14.531Z,0
2023-05-22T21:03:10.709Z,0
2023-05-22T21:05:11.458Z,0
2023-05-22T21:07:10.822Z,0
2023-05-22T21:09:10.605Z,0
2023-05-22T21:11:11.551Z,0
2023-05-22T21:13:10.833Z,0
2023-05-22T21:15:11.313Z,0
2023-05-22T21:17:14.311Z,0
2023-05-22T21:19:10.642Z,0
2023-05-22T21:21:11.316Z,0
2023-05-22T21:23:10.823Z,0
2023-05-22T21:25:11.454Z,0
2023-05-22T21:27:11.184Z,0
2023-05-22T21:29:11.299Z,0
2023-05-22T21:31:11.107Z,0
2023-05-22T21:33:10.707Z,0
2023-05-22T21:35:11.098Z,0
2023-05-22T21:37:10.439Z,0.2
2023-05-22T21:39:10.994Z,0.2
2023-05-22T21:41:10.827Z,0.2
2023-05-22T21:43:21.783Z,0
2023-05-22T21:45:10.729Z,0
2023-05-22T21:47:11.657Z,0
2023-05-22T21:49:10.936Z,0.17
2023-05-22T21:51:11.757Z,0.17
2023-05-22T21:53:10.716Z,0.17
2023-05-22T21:55:11.123Z,0
2023-05-22T21:57:10.599Z,0
2023-05-22T21:59:11.075Z,0
2023-05-22T22:01:14.231Z,0
2023-05-22T22:03:11.996Z,0
2023-05-22T22:05:10.936Z,0
2023-05-22T22:07:11.122Z,0.2
2023-05-22T22:09:10.675Z,0.2
2023-05-22T22:11:10.872Z,0.2
2023-05-22T22:13:11.205Z,0
2023-05-22T22:15:10.799Z,0
2023-05-22T22:17:11.389Z,0
2023-05-22T22:19:11.065Z,0.16
2023-05-22T22:21:29.994Z,0.16
2023-05-22T22:23:10.929Z,0.16
2023-05-22T22:25:11.326Z,0
2023-05-22T22:27:11.141Z,0
2023-05-22T22:29:10.493Z,0
2023-05-22T22:31:11.123Z,0.15
2023-05-22T22:33:12.327Z,0.15
2023-05-22T22:35:11.230Z,0.15
2023-05-22T22:37:10.686Z,0
2023-05-22T22:39:10.366Z,0
2023-05-22T22:41:13.052Z,0
2023-05-22T22:43:11.392Z,0.17
2023-05-22T22:45:11.171Z,0.17
2023-05-22T22:47:10.969Z,0.17
2023-05-22T22:49:11.164Z,0
2023-05-22T22:51:10.962Z,0
2023-05-22T22:53:11.673Z,0
2023-05-22T22:55:11.301Z,0
2023-05-22T22:57:10.618Z,0
2023-05-22T22:59:11.119Z,0
2023-05-22T23:01:14.095Z,0.18
2023-05-22T23:03:10.930Z,0.18
2023-05-22T23:05:12.864Z,0.18
2023-05-22T23:07:10.468Z,0.18
2023-05-22T23:09:11.558Z,0.18
2023-05-22T23:11:10.952Z,0.18
2023-05-22T23:13:12.027Z,0
2023-05-22T23:15:10.399Z,0
2023-05-22T23:17:11.629Z,0
2023-05-22T23:19:11.164Z,0
2023-05-22T23:21:11.912Z,0
2023-05-22T23:23:10.986Z,0
2023-05-22T23:25:10.431Z,0
2023-05-22T23:27:11.085Z,0
2023-05-22T23:29:10.625Z,0
2023-05-22T23:31:11.620Z,0
2023-05-22T23:33:12.622Z,0
2023-05-22T23:35:10.434Z,0
2023-05-22T23:37:11.063Z,0
2023-05-22T23:39:10.671Z,0
2023-05-22T23:41:11.045Z,0
2023-05-22T23:43:10.774Z,0
2023-05-22T23:45:10.429Z,0
2023-05-22T23:47:11.389Z,0
2023-05-22T23:49:10.579Z,0
2023-05-22T23:51:11.242Z,0
2023-05-22T23:53:10.720Z,0
2023-05-22T23:55:11.409Z,0
2023-05-22T23:57:10.852Z,0
2023-05-22T23:59:10.473Z,0
